Time;durP1;ratioP1;P1;durP2;ratioP2;P2;SDS_P1;SDS_P2;PMS_P1;PMS_P2;Temp;Humidity;BMP_temperature;BMP_pressure;BME280_temperature;BME280_humidity;BME280_pressure;Samples;Min_cycle;Max_cycle;Signal;HPM_P1;HPM_P2
2023/08/27 00:00:43;;;;;;;12.63;10.23;;;17.60;99.90;;;;;;4994785;28;20250;-33
2023/08/27 00:03:09;;;;;;;14.98;11.02;;;17.60;99.90;;;;;;4990858;28;20212;-32
2023/08/27 00:05:51;;;;;;;12.55;10.30;;;17.70;99.90;;;;;;5009862;28;20214;-32
2023/08/27 00:08:19;;;;;;;13.43;10.45;;;17.70;99.90;;;;;;4995099;28;20180;-32
2023/08/27 00:10:45;;;;;;;11.32;8.88;;;17.70;99.90;;;;;;4998308;28;20179;-33
2023/08/27 00:13:11;;;;;;;8.88;7.93;;;17.70;99.90;;;;;;4994716;28;20179;-33
2023/08/27 00:15:44;;;;;;;8.55;7.65;;;17.60;99.90;;;;;;4994495;28;20183;-32
2023/08/27 00:18:10;;;;;;;8.68;7.78;;;17.60;99.90;;;;;;4998166;28;20185;-32
2023/08/27 00:20:36;;;;;;;9.65;7.60;;;17.60;99.90;;;;;;5006409;28;20207;-33
2023/08/27 00:23:03;;;;;;;8.75;7.20;;;17.70;99.90;;;;;;4994748;28;20206;-32
2023/08/27 00:25:29;;;;;;;9.05;7.40;;;17.70;99.90;;;;;;4996604;28;20269;-32
2023/08/27 00:27:55;;;;;;;9.20;8.00;;;17.60;99.90;;;;;;4997062;28;20253;-32
2023/08/27 00:30:21;;;;;;;9.52;8.35;;;17.60;99.90;;;;;;5003843;28;20196;-32
2023/08/27 00:32:47;;;;;;;13.50;9.55;;;17.60;99.90;;;;;;4991781;28;20183;-32
2023/08/27 00:35:13;;;;;;;13.63;11.63;;;17.70;99.90;;;;;;5010663;28;20226;-33
2023/08/27 00:37:39;;;;;;;13.90;10.55;;;17.60;99.90;;;;;;4995524;28;20211;-32
2023/08/27 00:40:05;;;;;;;14.68;10.82;;;17.50;99.90;;;;;;4989097;28;20222;-32
2023/08/27 00:42:31;;;;;;;13.27;10.25;;;17.40;99.90;;;;;;5010143;28;20261;-33
2023/08/27 00:44:57;;;;;;;13.77;12.07;;;17.40;99.90;;;;;;4997958;28;20206;-32
2023/08/27 00:47:23;;;;;;;14.02;12.48;;;17.30;99.90;;;;;;4991035;28;20211;-32
2023/08/27 00:49:50;;;;;;;12.85;11.20;;;17.30;99.90;;;;;;5010781;28;20203;-32
2023/08/27 00:52:17;;;;;;;14.48;11.05;;;17.40;99.90;;;;;;4997401;28;20202;-32
2023/08/27 00:54:44;;;;;;;12.65;11.35;;;17.40;99.90;;;;;;4992111;28;20314;-33
2023/08/27 00:57:11;;;;;;;15.05;11.63;;;17.40;99.90;;;;;;4980925;28;20211;-33
2023/08/27 00:59:37;;;;;;;12.60;11.30;;;17.40;99.90;;;;;;4986064;28;20200;-33
2023/08/27 01:02:04;;;;;;;12.15;10.88;;;17.40;99.90;;;;;;4997515;28;20174;-33
2023/08/27 01:04:30;;;;;;;12.02;10.90;;;17.50;99.90;;;;;;4993877;28;20191;-33
2023/08/27 01:07:04;;;;;;;13.60;10.77;;;17.50;99.90;;;;;;4990531;28;20180;-33
2023/08/27 01:09:41;;;;;;;12.10;10.90;;;17.60;99.90;;;;;;4993804;28;20264;-33
2023/08/27 01:12:19;;;;;;;10.43;9.30;;;17.70;99.90;;;;;;4997414;28;20190;-33
2023/08/27 01:14:48;;;;;;;11.25;10.15;;;17.70;99.90;;;;;;4995587;28;20259;-32
2023/08/27 01:17:21;;;;;;;11.45;10.25;;;17.70;99.90;;;;;;5002340;28;20203;-32
2023/08/27 01:19:49;;;;;;;12.25;11.05;;;17.70;99.90;;;;;;4982855;28;20207;-32
2023/08/27 01:22:16;;;;;;;11.80;10.60;;;17.70;99.90;;;;;;4985298;28;20183;-32
2023/08/27 01:24:42;;;;;;;11.57;10.38;;;17.80;99.90;;;;;;5009182;28;20175;-32
2023/08/27 01:27:18;;;;;;;11.98;10.68;;;17.80;99.90;;;;;;4987973;28;20187;-32
2023/08/27 01:29:57;;;;;;;13.50;11.43;;;17.70;99.90;;;;;;5008502;28;20206;-33
2023/08/27 01:33:07;;;;;;;12.50;10.70;;;17.70;99.90;;;;;;4993990;28;20202;-32
2023/08/27 01:35:34;;;;;;;12.07;10.80;;;17.80;99.90;;;;;;4983257;28;20191;-32
2023/08/27 01:38:00;;;;;;;12.38;10.57;;;17.80;99.90;;;;;;5001480;28;20179;-32
2023/08/27 01:40:29;;;;;;;12.75;11.23;;;17.80;99.90;;;;;;4985179;28;20204;-32
2023/08/27 01:42:55;;;;;;;12.93;11.55;;;17.90;99.90;;;;;;4989206;28;20179;-32
2023/08/27 01:45:20;;;;;;;12.38;10.85;;;17.90;99.90;;;;;;4996029;28;20175;-33
2023/08/27 01:47:46;;;;;;;13.57;11.20;;;17.90;99.90;;;;;;4993208;28;20302;-33
2023/08/27 01:50:12;;;;;;;15.23;11.88;;;17.90;99.90;;;;;;4987641;28;20199;-32
2023/08/27 01:52:38;;;;;;;13.07;11.68;;;17.90;99.90;;;;;;5008164;28;20187;-32
2023/08/27 01:55:05;;;;;;;13.63;12.00;;;17.90;99.90;;;;;;4996654;28;20183;-31
2023/08/27 01:57:31;;;;;;;11.65;10.52;;;17.80;99.90;;;;;;4994077;28;20207;-32
2023/08/27 01:59:57;;;;;;;13.88;9.43;;;17.80;99.90;;;;;;4977123;28;20210;-32
2023/08/27 02:02:24;;;;;;;11.07;8.73;;;17.70;99.90;;;;;;4993696;28;20176;-31
2023/08/27 02:04:50;;;;;;;9.38;7.53;;;17.60;99.90;;;;;;5007262;28;20180;-32
2023/08/27 02:07:17;;;;;;;9.70;7.50;;;17.60;99.90;;;;;;4988320;28;20182;-32
2023/08/27 02:09:44;;;;;;;11.63;7.90;;;17.60;99.90;;;;;;4995311;28;20293;-32
2023/08/27 02:12:10;;;;;;;11.60;8.68;;;17.60;99.90;;;;;;4993784;28;20249;-32
2023/08/27 02:14:38;;;;;;;11.15;9.68;;;17.60;99.90;;;;;;4993404;28;20257;-32
2023/08/27 02:17:04;;;;;;;9.70;8.70;;;17.60;99.90;;;;;;4993300;28;20196;-33
2023/08/27 02:19:31;;;;;;;9.23;8.05;;;17.60;99.90;;;;;;4993444;28;20219;-34
2023/08/27 02:21:57;;;;;;;9.35;7.63;;;17.60;99.90;;;;;;4993307;28;20199;-32
2023/08/27 02:24:24;;;;;;;10.10;7.00;;;17.40;99.90;;;;;;4996752;28;20178;-31
2023/08/27 02:26:50;;;;;;;7.35;6.25;;;17.40;99.90;;;;;;5002073;28;20283;-31
2023/08/27 02:29:17;;;;;;;7.28;6.60;;;17.40;99.90;;;;;;4990145;28;20235;-32
2023/08/27 02:31:43;;;;;;;8.35;6.45;;;17.40;99.90;;;;;;5011255;28;20187;-31
2023/08/27 02:34:09;;;;;;;9.68;6.07;;;17.40;99.90;;;;;;5005263;28;20187;-31
2023/08/27 02:36:34;;;;;;;8.43;6.60;;;17.40;99.90;;;;;;5007150;28;20210;-31
2023/08/27 02:39:01;;;;;;;7.57;6.20;;;17.40;99.90;;;;;;4999812;28;20290;-32
2023/08/27 02:41:27;;;;;;;7.88;6.00;;;17.40;99.90;;;;;;4996784;28;20267;-32
2023/08/27 02:43:52;;;;;;;5.72;5.22;;;17.40;99.90;;;;;;4993357;28;20226;-33
2023/08/27 02:46:18;;;;;;;6.78;5.85;;;17.40;99.90;;;;;;4990274;28;20180;-33
2023/08/27 02:48:44;;;;;;;7.28;6.07;;;17.40;99.90;;;;;;4994859;28;20250;-34
2023/08/27 02:51:10;;;;;;;8.02;6.63;;;17.40;99.90;;;;;;4993448;28;20243;-32
2023/08/27 02:53:36;;;;;;;8.85;6.35;;;17.40;99.90;;;;;;4986917;28;20215;-32
2023/08/27 02:56:02;;;;;;;7.35;6.05;;;17.40;99.90;;;;;;4996434;28;20199;-32
2023/08/27 02:58:28;;;;;;;6.97;5.93;;;17.30;99.90;;;;;;4988507;28;20188;-32
2023/08/27 03:00:55;;;;;;;7.10;6.25;;;17.30;99.90;;;;;;4991164;28;20171;-32
2023/08/27 03:03:21;;;;;;;6.47;5.85;;;17.30;99.90;;;;;;4996752;28;20179;-32
2023/08/27 03:05:47;;;;;;;7.28;5.57;;;17.30;99.90;;;;;;4997451;28;20176;-32
2023/08/27 03:08:12;;;;;;;6.18;5.28;;;17.20;99.90;;;;;;5007896;28;20202;-32
2023/08/27 03:10:38;;;;;;;6.32;5.70;;;17.20;99.90;;;;;;5007262;28;20200;-32
2023/08/27 03:13:04;;;;;;;5.60;5.10;;;17.20;99.90;;;;;;4992864;28;20179;-32
2023/08/27 03:15:30;;;;;;;5.35;4.68;;;17.30;99.90;;;;;;4996016;28;20183;-31
2023/08/27 03:17:56;;;;;;;4.43;4.03;;;17.30;99.90;;;;;;4996206;28;20223;-33
2023/08/27 03:20:22;;;;;;;5.90;5.30;;;17.30;99.90;;;;;;4992745;28;20286;-32
2023/08/27 03:22:48;;;;;;;6.20;4.80;;;17.30;99.90;;;;;;4997011;28;20175;-32
2023/08/27 03:25:14;;;;;;;5.45;4.97;;;17.30;99.90;;;;;;5007433;28;20167;-34
2023/08/27 03:27:40;;;;;;;6.22;4.85;;;17.30;99.90;;;;;;4996404;28;20198;-31
2023/08/27 03:30:06;;;;;;;5.50;5.10;;;17.30;99.90;;;;;;5007182;28;20194;-32
2023/08/27 03:32:32;;;;;;;7.50;4.43;;;17.30;99.90;;;;;;5007536;28;20232;-32
2023/08/27 03:34:58;;;;;;;5.78;4.30;;;17.30;99.90;;;;;;4976578;28;20172;-32
2023/08/27 03:37:24;;;;;;;5.50;4.57;;;17.20;99.90;;;;;;4998997;28;20305;-32
2023/08/27 03:39:50;;;;;;;5.25;4.03;;;17.10;99.90;;;;;;5003686;28;20210;-32
2023/08/27 03:42:16;;;;;;;6.28;4.15;;;17.10;99.90;;;;;;4998747;28;20178;-32
2023/08/27 03:44:42;;;;;;;5.38;3.83;;;17.10;99.90;;;;;;5004059;28;20183;-32
2023/08/27 03:47:08;;;;;;;5.28;4.20;;;17.10;99.90;;;;;;5001620;28;20188;-31
2023/08/27 03:49:36;;;;;;;4.20;3.70;;;17.20;99.90;;;;;;5011660;28;20226;-31
2023/08/27 03:52:02;;;;;;;4.43;3.97;;;17.20;99.90;;;;;;4994809;28;20183;-32
2023/08/27 03:54:28;;;;;;;5.75;3.90;;;17.30;99.90;;;;;;4995389;28;20191;-32
2023/08/27 03:56:54;;;;;;;4.90;3.60;;;17.20;99.90;;;;;;4995734;28;20199;-34
2023/08/27 03:59:20;;;;;;;7.43;3.25;;;17.20;99.90;;;;;;4991964;28;20243;-31
2023/08/27 04:01:45;;;;;;;4.53;3.30;;;17.20;99.90;;;;;;5013082;28;20187;-32
2023/08/27 04:04:11;;;;;;;5.25;3.47;;;17.20;99.90;;;;;;5006569;28;20196;-32
2023/08/27 04:06:37;;;;;;;3.90;3.50;;;17.10;99.90;;;;;;5005857;28;20334;-32
2023/08/27 04:09:04;;;;;;;3.95;3.50;;;17.10;99.90;;;;;;4995123;28;20241;-33
2023/08/27 04:11:30;;;;;;;4.25;3.85;;;17.10;99.90;;;;;;4994796;28;20190;-32
2023/08/27 04:13:56;;;;;;;5.47;4.03;;;17.20;99.90;;;;;;4995027;28;20270;-31
2023/08/27 04:16:22;;;;;;;4.35;3.83;;;17.20;99.90;;;;;;4991757;28;20298;-33
2023/08/27 04:18:48;;;;;;;5.80;3.92;;;17.20;99.90;;;;;;4995427;28;20207;-32
2023/08/27 04:21:13;;;;;;;4.70;4.15;;;17.20;99.90;;;;;;4994985;28;20214;-32
2023/08/27 04:23:39;;;;;;;4.32;3.92;;;17.20;99.90;;;;;;4998276;28;20179;-33
2023/08/27 04:26:05;;;;;;;4.90;3.72;;;17.20;99.90;;;;;;4991784;28;20182;-32
2023/08/27 04:28:32;;;;;;;7.90;4.35;;;17.20;99.90;;;;;;4998713;28;20186;-32
2023/08/27 04:30:58;;;;;;;4.57;4.18;;;17.20;99.90;;;;;;4997988;28;20186;-31
2023/08/27 04:33:24;;;;;;;6.05;4.05;;;17.20;99.90;;;;;;5002252;28;20183;-32
2023/08/27 04:35:52;;;;;;;4.50;3.78;;;17.20;99.90;;;;;;4993775;28;20189;-32
2023/08/27 04:38:19;;;;;;;5.95;3.85;;;17.20;99.90;;;;;;4991151;28;20173;-33
2023/08/27 04:40:54;;;;;;;6.70;4.40;;;17.20;99.90;;;;;;4999498;28;20187;-32
2023/08/27 04:43:20;;;;;;;5.95;3.70;;;17.20;99.90;;;;;;4994138;28;20182;-32
2023/08/27 04:45:46;;;;;;;5.65;4.30;;;17.10;99.90;;;;;;4993765;28;20187;-32
2023/08/27 04:48:12;;;;;;;5.35;3.83;;;17.10;99.90;;;;;;4991035;28;20339;-32
2023/08/27 04:50:38;;;;;;;5.38;4.22;;;17.20;99.90;;;;;;5010565;28;20254;-33
2023/08/27 04:53:04;;;;;;;4.95;3.85;;;17.10;99.90;;;;;;4991368;28;20191;-32
2023/08/27 04:55:30;;;;;;;7.05;3.92;;;17.20;99.90;;;;;;5010427;28;20183;-32
2023/08/27 04:57:56;;;;;;;5.45;3.85;;;17.20;99.90;;;;;;4993407;28;20207;-32
2023/08/27 05:00:26;;;;;;;4.30;3.75;;;17.20;99.90;;;;;;4993723;28;20195;-32
2023/08/27 05:02:53;;;;;;;5.07;4.07;;;17.20;99.90;;;;;;4993984;28;20176;-32
2023/08/27 05:05:19;;;;;;;4.00;3.55;;;17.30;99.90;;;;;;4990525;28;20180;-32
2023/08/27 05:07:46;;;;;;;4.72;4.00;;;17.30;99.90;;;;;;5002259;28;20187;-33
2023/08/27 05:10:12;;;;;;;3.65;3.35;;;17.30;99.90;;;;;;4997313;28;20209;-32
2023/08/27 05:12:38;;;;;;;3.92;3.38;;;17.40;99.90;;;;;;5005519;28;20270;-32
2023/08/27 05:15:06;;;;;;;4.90;3.75;;;17.40;99.90;;;;;;4986532;28;20187;-32
2023/08/27 05:17:33;;;;;;;6.07;4.13;;;17.30;99.90;;;;;;4990466;28;20196;-32
2023/08/27 05:19:59;;;;;;;5.28;4.22;;;17.30;99.90;;;;;;5010942;28;20221;-32
2023/08/27 05:22:24;;;;;;;4.10;3.70;;;17.30;99.90;;;;;;4993991;28;20182;-33
2023/08/27 05:24:50;;;;;;;5.38;4.40;;;17.20;99.90;;;;;;4994404;28;20246;-33
2023/08/27 05:27:16;;;;;;;4.75;3.35;;;17.20;99.90;;;;;;4979183;28;20203;-32
2023/08/27 05:29:42;;;;;;;4.97;3.15;;;17.20;99.90;;;;;;4996559;28;20689;-33
2023/08/27 05:32:08;;;;;;;4.38;2.70;;;17.20;99.90;;;;;;4993608;28;20274;-33
2023/08/27 05:34:34;;;;;;;3.35;2.70;;;17.20;99.90;;;;;;5010220;28;20188;-33
2023/08/27 05:37:00;;;;;;;3.22;2.92;;;17.20;99.90;;;;;;4992581;28;20279;-33
2023/08/27 05:39:27;;;;;;;3.80;2.45;;;17.10;99.90;;;;;;4993936;28;20202;-32
2023/08/27 05:41:55;;;;;;;4.47;2.55;;;17.10;99.90;;;;;;4995418;28;20174;-33
2023/08/27 05:44:20;;;;;;;2.67;2.47;;;17.10;99.90;;;;;;4990237;28;20227;-34
2023/08/27 05:46:46;;;;;;;2.83;2.40;;;17.10;99.90;;;;;;5001093;28;20184;-32
2023/08/27 05:49:13;;;;;;;2.90;2.20;;;17.10;99.90;;;;;;4989368;28;20226;-33
2023/08/27 05:51:39;;;;;;;2.97;2.00;;;17.10;99.90;;;;;;4990477;28;20196;-32
2023/08/27 05:54:05;;;;;;;3.10;1.80;;;17.10;99.90;;;;;;4993278;28;20230;-32
2023/08/27 05:56:31;;;;;;;3.90;1.80;;;17.10;99.90;;;;;;4996886;28;20252;-32
2023/08/27 05:58:57;;;;;;;3.33;1.63;;;17.10;99.90;;;;;;4993290;28;20238;-32
2023/08/27 06:01:24;;;;;;;2.10;1.48;;;17.10;99.90;;;;;;4987529;28;20191;-32
2023/08/27 06:03:50;;;;;;;2.17;1.60;;;17.20;99.90;;;;;;4999976;28;20179;-32
2023/08/27 06:06:16;;;;;;;2.42;2.00;;;17.10;99.90;;;;;;4998997;28;20203;-32
2023/08/27 06:08:42;;;;;;;3.75;1.70;;;17.10;99.90;;;;;;4996097;28;20345;-32
2023/08/27 06:11:08;;;;;;;2.63;1.70;;;17.20;99.90;;;;;;4994092;28;20794;-32
2023/08/27 06:13:34;;;;;;;2.28;1.60;;;17.20;99.90;;;;;;4985297;28;20238;-32
2023/08/27 06:16:00;;;;;;;1.50;1.40;;;17.20;99.90;;;;;;5015524;28;20210;-35
2023/08/27 06:18:25;;;;;;;2.28;1.88;;;17.20;99.90;;;;;;4996216;28;20230;-33
2023/08/27 06:20:51;;;;;;;2.40;1.63;;;17.30;99.90;;;;;;4997692;28;20285;-33
2023/08/27 06:23:18;;;;;;;3.63;1.60;;;17.30;99.90;;;;;;5008425;28;20171;-32
2023/08/27 06:25:44;;;;;;;5.05;1.88;;;17.30;99.90;;;;;;5006835;28;20180;-32
2023/08/27 06:28:10;;;;;;;2.72;1.58;;;17.30;99.90;;;;;;5008554;28;20190;-32
2023/08/27 06:30:44;;;;;;;3.10;1.67;;;17.30;99.90;;;;;;5005306;28;20206;-32
2023/08/27 06:33:11;;;;;;;2.50;1.48;;;17.30;99.90;;;;;;4996764;28;20172;-32
2023/08/27 06:35:37;;;;;;;1.38;1.20;;;17.40;99.90;;;;;;4997152;28;20206;-33
2023/08/27 06:38:04;;;;;;;2.50;1.60;;;17.30;99.90;;;;;;4993616;28;20199;-32
2023/08/27 06:40:30;;;;;;;4.68;1.60;;;17.40;99.90;;;;;;4996301;28;20306;-35
2023/08/27 06:42:56;;;;;;;1.48;1.33;;;17.40;99.90;;;;;;4996067;28;20698;-33
2023/08/27 06:45:23;;;;;;;1.75;1.60;;;17.40;99.90;;;;;;4992691;28;20206;-34
2023/08/27 06:47:49;;;;;;;2.90;1.70;;;17.30;99.90;;;;;;4996518;28;20277;-34
2023/08/27 06:50:15;;;;;;;2.85;1.50;;;17.30;99.90;;;;;;4996500;28;20243;-32
2023/08/27 06:52:41;;;;;;;2.38;1.48;;;17.30;99.90;;;;;;4993426;28;20199;-32
2023/08/27 06:55:07;;;;;;;1.77;1.48;;;17.20;99.90;;;;;;5012683;28;20275;-31
2023/08/27 06:57:33;;;;;;;1.63;1.52;;;17.30;99.90;;;;;;4992872;28;20216;-31
2023/08/27 07:00:01;;;;;;;2.17;1.67;;;17.30;99.90;;;;;;5010745;28;20199;-31
2023/08/27 07:02:27;;;;;;;3.20;1.25;;;17.30;99.90;;;;;;4995396;28;20179;-32
2023/08/27 07:04:55;;;;;;;2.40;1.42;;;17.30;99.90;;;;;;4996128;28;20195;-32
2023/08/27 07:07:21;;;;;;;1.75;1.50;;;17.30;99.90;;;;;;4992279;28;20231;-32
2023/08/27 07:09:47;;;;;;;3.58;1.60;;;17.40;99.90;;;;;;5015296;28;20234;-31
2023/08/27 07:12:13;;;;;;;1.67;1.42;;;17.40;99.90;;;;;;4995464;28;20187;-32
2023/08/27 07:14:39;;;;;;;1.77;1.50;;;17.50;99.90;;;;;;4992804;28;20192;-33
2023/08/27 07:17:05;;;;;;;4.30;1.58;;;17.50;99.90;;;;;;5012149;28;20214;-33
2023/08/27 07:19:31;;;;;;;1.65;1.45;;;17.60;99.90;;;;;;4995109;28;20210;-33
2023/08/27 07:21:57;;;;;;;1.63;1.50;;;17.70;99.90;;;;;;4995936;28;20194;-33
2023/08/27 07:24:23;;;;;;;3.00;1.83;;;17.70;99.90;;;;;;4995922;28;20176;-32
2023/08/27 07:26:49;;;;;;;3.03;1.67;;;17.70;99.90;;;;;;4994912;28;20183;-33
2023/08/27 07:29:15;;;;;;;3.92;2.00;;;17.80;99.90;;;;;;4987360;28;20203;-33
2023/08/27 07:31:40;;;;;;;2.10;1.90;;;17.80;99.90;;;;;;4992270;28;20188;-37
2023/08/27 07:34:06;;;;;;;3.17;1.92;;;17.90;99.90;;;;;;5011588;28;20207;-34
2023/08/27 07:36:32;;;;;;;3.08;1.85;;;17.90;99.90;;;;;;4992429;28;20250;-33
2023/08/27 07:38:58;;;;;;;2.63;1.92;;;18.00;99.90;;;;;;5011291;28;20203;-33
2023/08/27 07:41:24;;;;;;;2.00;1.60;;;18.00;99.90;;;;;;4995561;28;20245;-39
2023/08/27 07:43:50;;;;;;;2.03;1.63;;;18.00;99.90;;;;;;4992363;28;20186;-35
2023/08/27 07:46:17;;;;;;;2.70;1.75;;;18.00;99.90;;;;;;4984275;28;20208;-35
2023/08/27 07:48:42;;;;;;;2.30;1.60;;;18.00;99.90;;;;;;4994427;28;20199;-35
2023/08/27 07:51:09;;;;;;;2.95;1.65;;;18.00;99.90;;;;;;4994842;28;20183;-35
2023/08/27 07:53:36;;;;;;;3.30;1.83;;;18.10;99.90;;;;;;4995706;28;20191;-35
2023/08/27 07:56:02;;;;;;;4.03;1.80;;;18.00;99.90;;;;;;4993414;28;20196;-36
2023/08/27 07:58:30;;;;;;;1.90;1.65;;;18.10;99.90;;;;;;4995231;28;20179;-35
2023/08/27 08:01:00;;;;;;;2.58;1.63;;;18.10;99.90;;;;;;4995286;28;20184;-35
2023/08/27 08:03:26;;;;;;;2.10;1.60;;;18.20;99.90;;;;;;4991890;28;20183;-36
2023/08/27 08:05:52;;;;;;;2.50;1.73;;;18.20;99.90;;;;;;5011077;28;20255;-35
2023/08/27 08:08:18;;;;;;;1.77;1.63;;;18.30;99.90;;;;;;4991664;28;20192;-35
2023/08/27 08:10:43;;;;;;;2.10;1.67;;;18.40;99.90;;;;;;5010906;28;20194;-34
2023/08/27 08:13:09;;;;;;;2.17;1.77;;;18.40;99.90;;;;;;4994265;28;20223;-35
2023/08/27 08:15:35;;;;;;;2.97;1.80;;;18.40;99.90;;;;;;4991666;28;20183;-35
2023/08/27 08:18:02;;;;;;;1.83;1.67;;;18.20;99.90;;;;;;5011173;28;20210;-35
2023/08/27 08:20:27;;;;;;;2.30;1.70;;;18.20;99.90;;;;;;4994172;28;20223;-34
2023/08/27 08:22:53;;;;;;;3.45;1.75;;;18.20;99.90;;;;;;4991712;28;20192;-35
2023/08/27 08:25:22;;;;;;;3.15;1.63;;;18.10;99.90;;;;;;5011053;28;20237;-33
2023/08/27 08:27:48;;;;;;;1.88;1.67;;;18.10;99.90;;;;;;4991228;28;20188;-34
2023/08/27 08:30:13;;;;;;;2.88;1.80;;;18.10;99.90;;;;;;5010886;28;20218;-34
2023/08/27 08:32:39;;;;;;;2.38;1.40;;;18.20;99.90;;;;;;5012203;28;20217;-33
2023/08/27 08:35:05;;;;;;;3.22;1.95;;;18.20;99.90;;;;;;4992571;28;20192;-33
2023/08/27 08:37:31;;;;;;;1.70;1.60;;;18.30;99.90;;;;;;4990203;28;20211;-33
2023/08/27 08:39:57;;;;;;;2.00;1.70;;;18.30;99.90;;;;;;5009115;28;20203;-34
2023/08/27 08:42:47;;;;;;;1.52;1.40;;;18.40;99.90;;;;;;4994491;28;20187;-33
2023/08/27 08:45:19;;;;;;;2.85;2.00;;;18.30;99.90;;;;;;4993350;28;20187;-33
2023/08/27 08:47:47;;;;;;;1.75;1.63;;;18.40;99.90;;;;;;4994132;28;20202;-33
2023/08/27 08:50:14;;;;;;;2.28;1.63;;;18.40;99.90;;;;;;4993274;28;20215;-33
2023/08/27 08:52:40;;;;;;;5.00;2.00;;;18.40;99.90;;;;;;4994596;28;20187;-33
2023/08/27 08:55:10;;;;;;;3.17;1.98;;;18.50;99.90;;;;;;4994331;28;20251;-33
2023/08/27 08:58:08;;;;;;;2.08;1.60;;;18.50;99.90;;;;;;4990868;28;20240;-35
2023/08/27 09:00:35;;;;;;;1.80;1.70;;;18.50;99.90;;;;;;4984540;28;20200;-35
2023/08/27 09:03:03;;;;;;;1.88;1.70;;;18.50;99.90;;;;;;5008452;28;20211;-35
2023/08/27 09:05:31;;;;;;;2.20;1.63;;;18.50;99.90;;;;;;4991910;28;20183;-35
2023/08/27 09:07:58;;;;;;;2.10;1.80;;;18.50;99.90;;;;;;4989644;28;20189;-35
2023/08/27 09:10:27;;;;;;;3.13;1.83;;;18.50;99.90;;;;;;4990044;28;20207;-35
2023/08/27 09:12:57;;;;;;;2.60;1.77;;;18.60;99.90;;;;;;4994052;28;20183;-35
2023/08/27 09:15:24;;;;;;;3.35;2.15;;;18.60;99.90;;;;;;4993888;28;20194;-36
2023/08/27 09:17:50;;;;;;;1.83;1.63;;;18.70;99.90;;;;;;4990332;28;20302;-35
2023/08/27 09:20:16;;;;;;;3.20;1.75;;;18.70;99.90;;;;;;5010057;28;20301;-35
2023/08/27 09:22:42;;;;;;;2.45;1.60;;;18.70;99.90;;;;;;4990372;28;20176;-34
2023/08/27 09:25:11;;;;;;;2.40;1.83;;;18.80;99.90;;;;;;4993500;28;20191;-36
2023/08/27 09:27:37;;;;;;;1.48;1.38;;;18.90;99.90;;;;;;4993601;28;20214;-33
2023/08/27 09:30:03;;;;;;;2.95;1.60;;;19.00;99.90;;;;;;4993706;28;20238;-33
2023/08/27 09:32:30;;;;;;;3.22;1.83;;;19.00;99.90;;;;;;4999369;28;20195;-33
2023/08/27 09:35:01;;;;;;;2.22;1.95;;;19.00;99.90;;;;;;4989725;28;20191;-33
2023/08/27 09:37:28;;;;;;;2.85;1.60;;;19.00;99.90;;;;;;5009364;28;20242;-33
2023/08/27 09:39:55;;;;;;;1.55;1.45;;;19.00;99.90;;;;;;4990194;28;20203;-33
2023/08/27 09:42:21;;;;;;;2.58;1.83;;;19.10;99.90;;;;;;4995143;28;20182;-33
2023/08/27 09:44:51;;;;;;;2.67;1.95;;;19.10;99.90;;;;;;4996633;28;20191;-34
2023/08/27 09:47:29;;;;;;;2.58;2.00;;;19.10;99.90;;;;;;4991771;28;20237;-33
2023/08/27 09:49:55;;;;;;;2.55;1.90;;;19.10;99.90;;;;;;5000116;28;20203;-33
2023/08/27 09:52:25;;;;;;;2.65;1.80;;;19.00;99.90;;;;;;5016339;28;20182;-34
2023/08/27 09:54:52;;;;;;;1.92;1.75;;;19.00;99.90;;;;;;4996306;28;20183;-33
2023/08/27 09:57:19;;;;;;;3.53;2.13;;;19.00;99.90;;;;;;4999737;28;20234;-34
2023/08/27 09:59:46;;;;;;;1.80;1.70;;;19.00;99.90;;;;;;4996917;28;20287;-34
2023/08/27 10:02:15;;;;;;;2.47;1.70;;;19.00;99.90;;;;;;5000010;28;20270;-34
2023/08/27 10:04:50;;;;;;;2.10;1.60;;;19.00;99.90;;;;;;4996834;28;20239;-35
2023/08/27 10:07:16;;;;;;;1.70;1.60;;;19.00;99.90;;;;;;4998876;28;20191;-34
2023/08/27 10:09:42;;;;;;;3.03;1.75;;;18.90;99.90;;;;;;4996696;28;20204;-34
2023/08/27 10:12:11;;;;;;;2.95;1.92;;;19.00;99.90;;;;;;5013702;28;20195;-34
2023/08/27 10:14:41;;;;;;;2.08;1.88;;;18.90;99.90;;;;;;4996387;28;20266;-35
2023/08/27 10:17:08;;;;;;;1.83;1.70;;;18.90;99.90;;;;;;4996632;28;20207;-35
2023/08/27 10:19:37;;;;;;;1.80;1.70;;;19.00;99.90;;;;;;5017161;23;20223;-30
2023/08/27 10:22:04;;;;;;;2.53;1.70;;;19.00;99.90;;;;;;4999624;28;20183;-29
2023/08/27 10:24:30;;;;;;;2.30;1.70;;;19.10;99.90;;;;;;5015173;28;20179;-29
2023/08/27 10:27:00;;;;;;;2.03;1.80;;;19.10;99.90;;;;;;4996238;28;20287;-30
2023/08/27 10:29:28;;;;;;;2.42;1.80;;;19.10;99.90;;;;;;5002939;28;20203;-29
2023/08/27 10:31:55;;;;;;;2.67;1.73;;;19.10;99.90;;;;;;5024298;28;20218;-29
2023/08/27 10:34:27;;;;;;;3.30;1.52;;;19.10;99.90;;;;;;4998745;28;20183;-29
2023/08/27 10:36:54;;;;;;;2.17;1.80;;;19.10;99.90;;;;;;4999462;28;20202;-30
2023/08/27 10:39:24;;;;;;;3.08;2.08;;;19.10;99.90;;;;;;5015835;28;20204;-29
2023/08/27 10:41:50;;;;;;;2.97;1.70;;;19.20;99.90;;;;;;4999525;28;20179;-30
2023/08/27 10:44:20;;;;;;;3.05;1.65;;;19.20;99.90;;;;;;4999128;28;20180;-30
2023/08/27 10:47:14;;;;;;;2.75;1.70;;;19.30;99.90;;;;;;4999142;28;20194;-29
2023/08/27 10:49:42;;;;;;;2.47;1.83;;;19.40;99.90;;;;;;5001157;28;20658;-30
2023/08/27 10:52:18;;;;;;;3.38;1.95;;;19.40;99.90;;;;;;5016003;28;20187;-30
2023/08/27 10:54:57;;;;;;;2.45;1.63;;;19.50;99.90;;;;;;4995264;28;20179;-29
2023/08/27 10:57:23;;;;;;;2.13;1.67;;;19.50;99.90;;;;;;5010713;28;20207;-30
2023/08/27 10:59:53;;;;;;;3.08;1.80;;;19.50;99.90;;;;;;5026597;28;20746;-29
2023/08/27 11:02:19;;;;;;;1.75;1.63;;;19.50;99.90;;;;;;5012264;28;20225;-29
2023/08/27 11:04:53;;;;;;;1.98;1.75;;;19.60;99.90;;;;;;5012720;28;20167;-30
2023/08/27 11:07:22;;;;;;;2.45;1.65;;;19.70;99.90;;;;;;5012253;28;20174;-30
2023/08/27 11:09:56;;;;;;;2.92;1.80;;;19.70;99.90;;;;;;4994860;28;20234;-29
2023/08/27 11:12:26;;;;;;;4.07;1.60;;;19.60;99.90;;;;;;5012782;28;20175;-30
2023/08/27 11:14:54;;;;;;;1.98;1.55;;;19.60;99.90;;;;;;5000992;28;20181;-30
2023/08/27 11:17:28;;;;;;;2.53;1.98;;;19.60;99.90;;;;;;5015407;28;20216;-30
2023/08/27 11:19:57;;;;;;;1.88;1.45;;;19.60;99.90;;;;;;5015530;28;20217;-30
2023/08/27 11:22:23;;;;;;;1.92;1.70;;;19.60;99.90;;;;;;5019270;28;20187;-30
2023/08/27 11:24:52;;;;;;;2.60;1.65;;;19.60;99.90;;;;;;4995814;28;20187;-30
2023/08/27 11:27:20;;;;;;;2.13;1.77;;;19.70;99.90;;;;;;5013325;28;20187;-30
2023/08/27 11:29:48;;;;;;;3.08;1.70;;;19.70;99.90;;;;;;4996158;28;20250;-29
2023/08/27 11:32:14;;;;;;;1.95;1.77;;;19.70;99.90;;;;;;4995219;28;20266;-29
2023/08/27 11:34:42;;;;;;;5.60;2.28;;;19.80;99.90;;;;;;4995815;28;20176;-30
2023/08/27 11:37:09;;;;;;;2.22;1.80;;;19.90;99.90;;;;;;5012046;28;20207;-29
2023/08/27 11:39:35;;;;;;;2.83;1.58;;;19.90;99.90;;;;;;5023827;28;20191;-30
2023/08/27 11:42:02;;;;;;;1.80;1.70;;;19.90;99.90;;;;;;5031934;28;20226;-30
2023/08/27 11:44:27;;;;;;;3.08;1.60;;;20.00;99.90;;;;;;5014571;28;20226;-30
2023/08/27 11:47:05;;;;;;;2.05;1.60;;;20.10;99.90;;;;;;5014730;28;20186;-30
2023/08/27 11:49:32;;;;;;;2.13;1.60;;;20.20;99.90;;;;;;5020338;28;20265;-30
2023/08/27 11:51:59;;;;;;;2.17;1.63;;;20.20;99.90;;;;;;5020087;28;20179;-30
2023/08/27 11:54:30;;;;;;;2.47;1.65;;;20.30;99.90;;;;;;4995373;28;20210;-30
2023/08/27 11:56:57;;;;;;;2.72;1.58;;;20.30;99.90;;;;;;4994780;28;20206;-30
2023/08/27 11:59:30;;;;;;;3.83;1.90;;;20.30;99.90;;;;;;4994948;28;20214;-30
2023/08/27 12:01:59;;;;;;;2.15;1.60;;;20.40;99.90;;;;;;4995637;28;20267;-30
2023/08/27 12:04:29;;;;;;;2.97;1.90;;;20.50;99.90;;;;;;5010939;28;20195;-29
2023/08/27 12:07:00;;;;;;;3.47;1.85;;;20.50;99.90;;;;;;5013042;28;20210;-30
2023/08/27 12:09:33;;;;;;;2.28;1.65;;;20.50;99.90;;;;;;5000424;28;20265;-30
2023/08/27 12:12:04;;;;;;;1.85;1.75;;;20.50;99.90;;;;;;5027517;28;20245;-30
2023/08/27 12:14:30;;;;;;;2.40;1.55;;;20.60;99.90;;;;;;5014417;28;20692;-30
2023/08/27 12:17:07;;;;;;;2.10;1.73;;;20.70;99.90;;;;;;5012832;28;20267;-30
2023/08/27 12:19:35;;;;;;;3.05;1.83;;;20.80;99.90;;;;;;4994934;28;20215;-30
2023/08/27 12:22:01;;;;;;;2.72;1.80;;;20.80;99.90;;;;;;4995137;28;20180;-30
2023/08/27 12:24:40;;;;;;;1.98;1.80;;;20.90;99.90;;;;;;4994734;28;20649;-30
2023/08/27 12:27:20;;;;;;;2.28;1.40;;;21.00;99.90;;;;;;5010869;28;20234;-30
2023/08/27 12:29:51;;;;;;;2.22;1.80;;;21.00;99.90;;;;;;5007606;28;20198;-31
2023/08/27 12:32:18;;;;;;;3.30;2.08;;;21.00;99.90;;;;;;5031036;28;20183;-30
2023/08/27 12:34:45;;;;;;;2.00;1.70;;;20.90;99.90;;;;;;5030686;28;20190;-30
2023/08/27 12:37:12;;;;;;;2.33;1.50;;;20.70;99.90;;;;;;5014037;28;20213;-30
2023/08/27 12:39:40;;;;;;;2.13;1.40;;;20.80;99.90;;;;;;5030377;28;20226;-29
2023/08/27 12:42:07;;;;;;;1.92;1.73;;;20.80;99.90;;;;;;5014424;28;20182;-30
2023/08/27 12:44:34;;;;;;;2.10;1.42;;;20.80;99.90;;;;;;5013747;28;20205;-31